Time;durP1;ratioP1;P1;durP2;ratioP2;P2;SDS_P1;SDS_P2;PMS_P1;PMS_P2;Temp;Humidity;BMP_temperature;BMP_pressure;BME280_temperature;BME280_humidity;BME280_pressure;Samples;Min_cycle;Max_cycle;Signal;HPM_P1;HPM_P2
2024/01/19 00:01:47;;;;;;;21.27;10.88;;;;;;;;;;6303555;22;20002;-77
2024/01/19 00:04:33;;;;;;;25.38;13.27;;;;;;;;;;6310328;22;20333;-78
2024/01/19 00:07:19;;;;;;;23.33;11.95;;;;;;;;;;6308164;22;20007;-80
2024/01/19 00:10:05;;;;;;;24.65;12.88;;;;;;;;;;6304401;22;20063;-81
2024/01/19 00:12:50;;;;;;;29.15;12.48;;;;;;;;;;6302490;22;20077;-78
2024/01/19 00:15:35;;;;;;;27.17;13.43;;;;;;;;;;6300559;22;20455;-79
2024/01/19 00:18:22;;;;;;;27.13;12.55;;;;;;;;;;6300502;22;20335;-79
2024/01/19 00:21:08;;;;;;;24.20;12.90;;;;;;;;;;6302345;22;20323;-80
2024/01/19 00:23:53;;;;;;;22.00;11.90;;;;;;;;;;6302424;22;19995;-79
2024/01/19 00:26:38;;;;;;;28.17;13.88;;;;;;;;;;6300062;22;20003;-79
2024/01/19 00:29:23;;;;;;;24.23;12.05;;;;;;;;;;6292448;22;19995;-79
2024/01/19 00:32:09;;;;;;;20.45;12.43;;;;;;;;;;6302530;22;20062;-77
2024/01/19 00:34:54;;;;;;;24.15;12.32;;;;;;;;;;6302840;22;19998;-78
2024/01/19 00:37:39;;;;;;;25.92;12.63;;;;;;;;;;6295617;22;20488;-78
2024/01/19 00:40:25;;;;;;;26.38;13.90;;;;;;;;;;6276128;22;20026;-78
2024/01/19 00:43:10;;;;;;;20.33;12.05;;;;;;;;;;6295634;22;20272;-79
2024/01/19 00:45:55;;;;;;;26.17;11.82;;;;;;;;;;6295018;22;20047;-80
2024/01/19 00:48:40;;;;;;;24.55;12.27;;;;;;;;;;6295498;22;19990;-80
2024/01/19 00:51:25;;;;;;;25.88;11.77;;;;;;;;;;6298028;22;19999;-79
2024/01/19 00:54:11;;;;;;;22.92;12.73;;;;;;;;;;6295366;22;19995;-80
2024/01/19 00:56:56;;;;;;;27.20;11.82;;;;;;;;;;6302100;22;20002;-77
2024/01/19 00:59:41;;;;;;;23.13;12.27;;;;;;;;;;6299409;22;20628;-79
2024/01/19 01:02:27;;;;;;;22.23;12.77;;;;;;;;;;6299868;22;20014;-79
2024/01/19 01:05:13;;;;;;;24.98;13.10;;;;;;;;;;6302048;22;20006;-79
2024/01/19 01:07:58;;;;;;;25.00;14.55;;;;;;;;;;6300924;22;19999;-78
2024/01/19 01:10:45;;;;;;;23.92;13.43;;;;;;;;;;6298819;22;19995;-78
2024/01/19 01:13:30;;;;;;;20.80;12.48;;;;;;;;;;6299892;22;20795;-79
2024/01/19 01:16:15;;;;;;;23.70;14.20;;;;;;;;;;6299872;22;19998;-77
2024/01/19 01:19:00;;;;;;;27.55;12.77;;;;;;;;;;6302365;22;20460;-76
2024/01/19 01:21:46;;;;;;;24.20;13.23;;;;;;;;;;6299669;22;20009;-79
2024/01/19 01:24:31;;;;;;;20.83;12.57;;;;;;;;;;6274701;22;20328;-78
2024/01/19 01:27:16;;;;;;;26.70;15.63;;;;;;;;;;6297161;22;20006;-79
2024/01/19 01:30:07;;;;;;;27.27;14.35;;;;;;;;;;6295164;22;20078;-79
2024/01/19 01:32:52;;;;;;;25.98;12.07;;;;;;;;;;6296327;22;19998;-80
2024/01/19 01:35:37;;;;;;;26.58;12.93;;;;;;;;;;6299310;22;20497;-79
2024/01/19 01:38:26;;;;;;;23.27;12.05;;;;;;;;;;6298586;22;20005;-77
2024/01/19 01:41:11;;;;;;;27.20;13.07;;;;;;;;;;6289409;22;19994;-79
2024/01/19 01:43:56;;;;;;;27.40;12.20;;;;;;;;;;6301022;22;19995;-78
2024/01/19 01:46:42;;;;;;;23.20;11.45;;;;;;;;;;6299152;22;20411;-79
2024/01/19 01:49:27;;;;;;;23.75;12.85;;;;;;;;;;6299329;22;20059;-79
2024/01/19 01:52:12;;;;;;;25.25;12.52;;;;;;;;;;6300977;22;20466;-79
2024/01/19 01:55:00;;;;;;;24.73;13.02;;;;;;;;;;6295265;22;19991;-79
2024/01/19 01:57:46;;;;;;;22.15;12.55;;;;;;;;;;6294113;22;19999;-77
2024/01/19 02:00:32;;;;;;;22.70;11.80;;;;;;;;;;6299264;22;20077;-79
2024/01/19 02:03:17;;;;;;;26.77;13.85;;;;;;;;;;6299643;22;20442;-79
2024/01/19 02:06:02;;;;;;;26.52;13.60;;;;;;;;;;6300243;22;20063;-78
2024/01/19 02:08:48;;;;;;;29.65;13.68;;;;;;;;;;6302751;22;19995;-78
2024/01/19 02:11:33;;;;;;;25.75;13.68;;;;;;;;;;6302257;22;20011;-79
2024/01/19 02:14:18;;;;;;;25.73;13.13;;;;;;;;;;6304875;22;20052;-78
2024/01/19 02:17:04;;;;;;;22.92;12.18;;;;;;;;;;6305123;22;20003;-79
2024/01/19 02:19:49;;;;;;;23.65;13.23;;;;;;;;;;6303416;22;20423;-79
2024/01/19 02:22:34;;;;;;;20.40;12.05;;;;;;;;;;6300452;22;19998;-79
2024/01/19 02:25:20;;;;;;;24.98;12.85;;;;;;;;;;6300058;22;20369;-78
2024/01/19 02:28:05;;;;;;;20.75;12.63;;;;;;;;;;6299486;22;20003;-77
2024/01/19 02:30:50;;;;;;;24.77;13.40;;;;;;;;;;6297942;22;20399;-77
2024/01/19 02:33:35;;;;;;;24.90;13.40;;;;;;;;;;6298694;22;19999;-78
2024/01/19 02:36:21;;;;;;;23.90;11.88;;;;;;;;;;6299068;22;20377;-76
2024/01/19 02:39:06;;;;;;;23.15;12.68;;;;;;;;;;6305495;22;20030;-79
2024/01/19 02:41:54;;;;;;;23.90;13.32;;;;;;;;;;6305114;22;20454;-79
2024/01/19 02:44:39;;;;;;;20.60;12.07;;;;;;;;;;6300655;22;20249;-79
2024/01/19 02:47:24;;;;;;;23.25;12.48;;;;;;;;;;6303033;22;20007;-80
2024/01/19 02:50:09;;;;;;;24.00;13.07;;;;;;;;;;6304988;22;20009;-77
2024/01/19 02:52:55;;;;;;;22.77;11.95;;;;;;;;;;6305397;22;20327;-78
2024/01/19 02:55:40;;;;;;;23.50;12.40;;;;;;;;;;6302433;22;20253;-79
2024/01/19 02:58:25;;;;;;;23.92;12.32;;;;;;;;;;6304213;22;20005;-78
2024/01/19 03:01:11;;;;;;;22.08;11.68;;;;;;;;;;6305829;22;19995;-79
2024/01/19 03:03:58;;;;;;;24.80;12.27;;;;;;;;;;6304338;22;19998;-78
2024/01/19 03:06:43;;;;;;;22.15;11.27;;;;;;;;;;6301043;22;20051;-79
2024/01/19 03:09:28;;;;;;;23.90;12.05;;;;;;;;;;6301538;22;20018;-79
2024/01/19 03:12:13;;;;;;;21.38;12.68;;;;;;;;;;6308544;22;20010;-79
2024/01/19 03:14:58;;;;;;;20.58;12.48;;;;;;;;;;6308895;22;20431;-79
2024/01/19 03:17:44;;;;;;;24.52;12.95;;;;;;;;;;6306669;22;20007;-78
2024/01/19 03:20:29;;;;;;;25.40;13.30;;;;;;;;;;6307110;22;20415;-78
2024/01/19 03:23:14;;;;;;;22.10;11.85;;;;;;;;;;6307328;22;20044;-78
2024/01/19 03:25:59;;;;;;;20.27;11.30;;;;;;;;;;6306968;22;20003;-78
2024/01/19 03:28:45;;;;;;;19.70;11.18;;;;;;;;;;6304727;22;20227;-78
2024/01/19 03:31:30;;;;;;;24.58;11.45;;;;;;;;;;6304542;22;19998;-78
2024/01/19 03:34:15;;;;;;;20.85;11.88;;;;;;;;;;6304962;22;20003;-78
2024/01/19 03:37:03;;;;;;;24.13;11.48;;;;;;;;;;6304407;22;20346;-77
2024/01/19 03:39:48;;;;;;;23.35;12.65;;;;;;;;;;6306918;22;20419;-77
2024/01/19 03:42:33;;;;;;;18.95;10.43;;;;;;;;;;6304527;22;19995;-79
2024/01/19 03:45:19;;;;;;;22.40;12.13;;;;;;;;;;6300253;22;20014;-78
2024/01/19 03:48:04;;;;;;;19.23;11.63;;;;;;;;;;6307209;22;20074;-79
2024/01/19 03:50:49;;;;;;;20.35;11.68;;;;;;;;;;6307101;22;20391;-79
2024/01/19 03:53:34;;;;;;;24.30;13.15;;;;;;;;;;6305265;22;20330;-79
2024/01/19 03:56:19;;;;;;;19.05;11.02;;;;;;;;;;6307401;22;20385;-77
2024/01/19 03:59:05;;;;;;;21.92;11.35;;;;;;;;;;6306404;22;20075;-79
2024/01/19 04:01:51;;;;;;;22.63;11.88;;;;;;;;;;6304189;22;20006;-80
2024/01/19 04:04:36;;;;;;;24.05;12.82;;;;;;;;;;6297233;22;20037;-79
2024/01/19 04:07:21;;;;;;;25.50;12.25;;;;;;;;;;6299249;22;20195;-79
2024/01/19 04:10:07;;;;;;;23.38;12.85;;;;;;;;;;6295636;22;20010;-80
2024/01/19 04:12:52;;;;;;;19.38;10.85;;;;;;;;;;6297650;22;20483;-79
2024/01/19 04:15:37;;;;;;;27.23;11.68;;;;;;;;;;6294414;22;20075;-80
2024/01/19 04:18:22;;;;;;;22.27;12.02;;;;;;;;;;6295065;22;20018;-80
2024/01/19 04:21:08;;;;;;;21.73;10.95;;;;;;;;;;6302916;22;20001;-79
2024/01/19 04:23:53;;;;;;;23.25;11.38;;;;;;;;;;6302199;22;19991;-79
2024/01/19 04:26:39;;;;;;;24.23;13.63;;;;;;;;;;6300282;22;20258;-79
2024/01/19 04:29:24;;;;;;;31.90;12.90;;;;;;;;;;6299888;22;19998;-79
2024/01/19 04:32:10;;;;;;;20.63;11.43;;;;;;;;;;6301904;22;19998;-79
2024/01/19 04:34:55;;;;;;;24.42;11.10;;;;;;;;;;6301073;22;20387;-79
2024/01/19 04:37:40;;;;;;;23.33;12.27;;;;;;;;;;6300917;22;19999;-77
2024/01/19 04:40:26;;;;;;;22.70;12.05;;;;;;;;;;6302236;22;19995;-78
2024/01/19 04:43:11;;;;;;;22.65;11.73;;;;;;;;;;6303515;22;20450;-78
2024/01/19 04:45:57;;;;;;;21.30;11.95;;;;;;;;;;6302074;22;20331;-78
2024/01/19 04:48:42;;;;;;;22.63;11.75;;;;;;;;;;6295278;22;20226;-78
2024/01/19 04:51:27;;;;;;;19.40;11.68;;;;;;;;;;6293182;22;20319;-78
2024/01/19 04:54:12;;;;;;;23.40;12.00;;;;;;;;;;6295314;22;20002;-78
2024/01/19 04:56:57;;;;;;;22.67;11.35;;;;;;;;;;6297906;22;20006;-78
2024/01/19 04:59:43;;;;;;;33.20;12.68;;;;;;;;;;6294381;22;20010;-78
2024/01/19 05:02:29;;;;;;;20.25;11.55;;;;;;;;;;6299978;22;20864;-77
2024/01/19 05:05:18;;;;;;;21.70;11.07;;;;;;;;;;6302671;22;20329;-78
2024/01/19 05:08:03;;;;;;;24.58;12.05;;;;;;;;;;6301864;22;19990;-78
2024/01/19 05:10:48;;;;;;;24.65;13.35;;;;;;;;;;6299755;22;19997;-77
2024/01/19 05:13:34;;;;;;;23.70;12.25;;;;;;;;;;6268533;22;20023;-79
2024/01/19 05:16:19;;;;;;;26.65;12.82;;;;;;;;;;6271312;22;19995;-79
2024/01/19 05:19:04;;;;;;;24.17;12.73;;;;;;;;;;6270762;22;20320;-78
2024/01/19 05:21:49;;;;;;;27.60;11.68;;;;;;;;;;6267907;22;20098;-77
2024/01/19 05:24:35;;;;;;;21.63;11.40;;;;;;;;;;6268026;22;20090;-77
2024/01/19 05:27:20;;;;;;;18.58;11.07;;;;;;;;;;6270300;22;20551;-80
2024/01/19 05:30:06;;;;;;;24.55;11.45;;;;;;;;;;6263957;22;20052;-79
2024/01/19 05:32:51;;;;;;;24.83;13.95;;;;;;;;;;6264897;22;19995;-80
2024/01/19 05:35:36;;;;;;;28.25;12.85;;;;;;;;;;6264399;22;20007;-78
2024/01/19 05:38:22;;;;;;;27.27;13.13;;;;;;;;;;6264867;22;20003;-79
2024/01/19 05:41:07;;;;;;;28.77;13.63;;;;;;;;;;6270824;22;19999;-79
2024/01/19 05:43:52;;;;;;;21.80;12.38;;;;;;;;;;6269419;22;20003;-78
2024/01/19 05:46:38;;;;;;;26.98;14.35;;;;;;;;;;6271009;22;20086;-78
2024/01/19 05:49:23;;;;;;;21.98;12.80;;;;;;;;;;6268879;22;20443;-79
2024/01/19 05:52:08;;;;;;;21.48;12.27;;;;;;;;;;6270995;22;19999;-79
2024/01/19 05:54:53;;;;;;;26.70;13.13;;;;;;;;;;6271562;22;20420;-79
2024/01/19 05:57:39;;;;;;;24.80;12.95;;;;;;;;;;6269725;22;20008;-79
2024/01/19 06:00:24;;;;;;;22.38;12.13;;;;;;;;;;6269151;22;20002;-80
2024/01/19 06:03:09;;;;;;;22.67;12.68;;;;;;;;;;6271755;22;20000;-78
2024/01/19 06:05:54;;;;;;;20.42;12.38;;;;;;;;;;6267898;22;20003;-78
2024/01/19 06:08:39;;;;;;;23.15;12.48;;;;;;;;;;6264362;22;20006;-78
2024/01/19 06:11:25;;;;;;;24.83;12.25;;;;;;;;;;6269539;22;19999;-78
2024/01/19 06:14:13;;;;;;;18.13;10.15;;;;;;;;;;6274609;22;20331;-79
2024/01/19 06:16:58;;;;;;;24.05;12.85;;;;;;;;;;6297322;22;20495;-78
2024/01/19 06:19:43;;;;;;;22.23;12.75;;;;;;;;;;6302413;22;20006;-82
2024/01/19 06:22:29;;;;;;;25.55;12.32;;;;;;;;;;6298411;22;20002;-79
2024/01/19 06:25:14;;;;;;;25.35;13.95;;;;;;;;;;6301507;22;20063;-79
2024/01/19 06:27:59;;;;;;;29.33;14.40;;;;;;;;;;6301177;22;19999;-81
2024/01/19 06:30:45;;;;;;;23.80;13.40;;;;;;;;;;6296745;22;19991;-81
2024/01/19 06:33:30;;;;;;;23.02;13.30;;;;;;;;;;6297889;22;20002;-83
2024/01/19 06:36:15;;;;;;;23.85;12.77;;;;;;;;;;6297052;22;20696;-81
2024/01/19 06:39:00;;;;;;;24.92;13.05;;;;;;;;;;6296036;22;20321;-82
2024/01/19 06:41:47;;;;;;;21.98;12.88;;;;;;;;;;6295351;22;20162;-80
2024/01/19 06:44:32;;;;;;;22.75;12.45;;;;;;;;;;6297434;22;20038;-81
2024/01/19 06:47:18;;;;;;;26.15;12.20;;;;;;;;;;6299017;22;20339;-80
2024/01/19 06:50:04;;;;;;;23.70;12.50;;;;;;;;;;6301363;22;20029;-79
2024/01/19 06:52:50;;;;;;;22.50;12.65;;;;;;;;;;6280031;22;20005;-80
2024/01/19 06:55:35;;;;;;;28.05;12.25;;;;;;;;;;6299902;22;20361;-78
2024/01/19 06:58:20;;;;;;;20.77;11.98;;;;;;;;;;6304054;22;20030;-81
2024/01/19 07:01:06;;;;;;;19.73;11.70;;;;;;;;;;6303651;22;20063;-81
2024/01/19 07:03:51;;;;;;;23.55;11.07;;;;;;;;;;6304125;22;19995;-80
2024/01/19 07:06:36;;;;;;;24.45;11.30;;;;;;;;;;6301186;22;19999;-79
2024/01/19 07:09:22;;;;;;;23.67;12.15;;;;;;;;;;6303036;22;20003;-78
2024/01/19 07:12:07;;;;;;;21.17;11.82;;;;;;;;;;6300722;22;20021;-78
2024/01/19 07:14:52;;;;;;;22.85;12.48;;;;;;;;;;6297273;22;19994;-83
2024/01/19 07:17:37;;;;;;;21.45;11.55;;;;;;;;;;6297660;22;20033;-82
2024/01/19 07:20:23;;;;;;;26.83;11.82;;;;;;;;;;6298987;22;19995;-80
2024/01/19 07:23:08;;;;;;;22.58;11.52;;;;;;;;;;6297403;22;19994;-80
2024/01/19 07:25:53;;;;;;;20.02;11.20;;;;;;;;;;6304578;22;20518;-78
2024/01/19 07:28:39;;;;;;;27.42;13.82;;;;;;;;;;6305449;22;20052;-80
2024/01/19 07:31:24;;;;;;;20.45;12.27;;;;;;;;;;6300654;22;20022;-79
2024/01/19 07:34:09;;;;;;;19.73;11.70;;;;;;;;;;6303809;22;20305;-79
2024/01/19 07:36:54;;;;;;;21.55;12.02;;;;;;;;;;6304329;22;20373;-78
2024/01/19 07:39:40;;;;;;;24.95;12.32;;;;;;;;;;6302752;22;20052;-81
2024/01/19 07:42:25;;;;;;;19.85;10.80;;;;;;;;;;6303223;22;19994;-81
2024/01/19 07:45:10;;;;;;;23.90;12.07;;;;;;;;;;6303572;22;20060;-80
2024/01/19 07:47:55;;;;;;;24.55;12.20;;;;;;;;;;6304471;22;20070;-81
2024/01/19 07:50:41;;;;;;;25.25;12.38;;;;;;;;;;6302372;22;20141;-82
2024/01/19 07:53:26;;;;;;;24.70;11.48;;;;;;;;;;6299623;22;20102;-81
2024/01/19 07:56:11;;;;;;;19.05;11.30;;;;;;;;;;6275547;22;20003;-79
2024/01/19 07:58:56;;;;;;;21.30;11.35;;;;;;;;;;6299144;22;20001;-83
2024/01/19 08:01:41;;;;;;;24.05;12.68;;;;;;;;;;6296753;22;20102;-81
2024/01/19 08:04:27;;;;;;;21.10;12.30;;;;;;;;;;6299574;22;20331;-79
2024/01/19 08:07:12;;;;;;;21.38;12.02;;;;;;;;;;6325285;22;20029;-81
2024/01/19 08:09:58;;;;;;;19.98;11.75;;;;;;;;;;6320535;22;20001;-83
2024/01/19 08:12:43;;;;;;;19.50;11.20;;;;;;;;;;6325767;22;20014;-82
2024/01/19 08:15:28;;;;;;;24.40;12.57;;;;;;;;;;6327634;22;20003;-81
2024/01/19 08:18:13;;;;;;;19.60;11.57;;;;;;;;;;6313551;22;20070;-84
2024/01/19 08:20:59;;;;;;;20.95;11.07;;;;;;;;;;6309149;22;19999;-86
2024/01/19 08:23:45;;;;;;;20.95;11.52;;;;;;;;;;6300202;22;19997;-82
2024/01/19 08:26:31;;;;;;;21.65;12.13;;;;;;;;;;6299061;22;20038;-83
2024/01/19 08:29:16;;;;;;;24.98;11.70;;;;;;;;;;6298432;22;19995;-84
2024/01/19 08:32:01;;;;;;;23.10;11.52;;;;;;;;;;6300680;22;20006;-83
2024/01/19 08:34:46;;;;;;;23.23;10.48;;;;;;;;;;6298732;22;20385;-83
2024/01/19 08:37:32;;;;;;;23.98;11.60;;;;;;;;;;6301418;22;20048;-81
2024/01/19 08:40:17;;;;;;;21.90;11.70;;;;;;;;;;6303493;22;19995;-79
2024/01/19 08:43:02;;;;;;;24.30;10.98;;;;;;;;;;6302778;22;20026;-79
2024/01/19 08:45:48;;;;;;;19.38;12.40;;;;;;;;;;6301047;22;20005;-79
2024/01/19 08:48:33;;;;;;;21.30;11.73;;;;;;;;;;6301793;22;20048;-81
2024/01/19 08:51:20;;;;;;;21.55;11.70;;;;;;;;;;6299317;22;20322;-82
2024/01/19 08:54:05;;;;;;;22.73;10.85;;;;;;;;;;6298428;22;19995;-83
2024/01/19 08:56:50;;;;;;;17.73;10.48;;;;;;;;;;6299634;22;20045;-83
2024/01/19 08:59:36;;;;;;;23.27;12.95;;;;;;;;;;6301669;22;20459;-80
2024/01/19 09:02:21;;;;;;;19.10;10.13;;;;;;;;;;6301554;22;20052;-82
2024/01/19 09:05:10;;;;;;;21.92;11.88;;;;;;;;;;6303953;22;20011;-80
2024/01/19 09:07:55;;;;;;;19.50;10.50;;;;;;;;;;6302281;22;19999;-80
2024/01/19 09:10:41;;;;;;;19.25;11.00;;;;;;;;;;6302235;22;19998;-82
2024/01/19 09:13:27;;;;;;;20.98;10.15;;;;;;;;;;6303999;22;20014;-79
2024/01/19 09:16:12;;;;;;;22.15;11.10;;;;;;;;;;6303415;22;20010;-80
2024/01/19 09:18:57;;;;;;;21.70;13.27;;;;;;;;;;6303153;22;20056;-80
2024/01/19 09:21:47;;;;;;;21.15;10.55;;;;;;;;;;6299629;22;19998;-81
2024/01/19 09:24:32;;;;;;;;;;;;;;;;;;6297090;22;20056;-81
2024/01/19 09:27:18;;;;;;;19.98;11.20;;;;;;;;;;6296991;22;19919;-80
2024/01/19 09:30:03;;;;;;;25.15;11.57;;;;;;;;;;6298735;22;20414;-79
2024/01/19 09:32:48;;;;;;;24.58;13.27;;;;;;;;;;6296775;22;19994;-82
2024/01/19 09:35:34;;;;;;;21.90;12.85;;;;;;;;;;6298566;22;20023;-78
2024/01/19 09:38:19;;;;;;;21.65;12.65;;;;;;;;;;6303170;22;20068;-78
2024/01/19 09:41:10;;;;;;;25.23;12.43;;;;;;;;;;6303174;22;20002;-80
2024/01/19 09:43:57;;;;;;;25.17;13.88;;;;;;;;;;6302252;22;19995;-78
2024/01/19 09:46:50;;;;;;;24.40;13.40;;;;;;;;;;6300059;22;20032;-77
2024/01/19 09:49:41;;;;;;;25.10;13.95;;;;;;;;;;6278722;22;19998;-76
2024/01/19 09:52:40;;;;;;;26.63;16.15;;;;;;;;;;6301378;22;20030;-78
2024/01/19 09:55:27;;;;;;;27.17;15.57;;;;;;;;;;6297685;22;20086;-76
2024/01/19 09:58:13;;;;;;;24.52;15.18;;;;;;;;;;6295984;22;20026;-76
2024/01/19 10:01:00;;;;;;;25.88;14.25;;;;;;;;;;6295465;22;20009;-76
2024/01/19 10:03:45;;;;;;;23.23;14.60;;;;;;;;;;6296208;22;19995;-76
2024/01/19 10:06:30;;;;;;;24.83;13.85;;;;;;;;;;6295734;22;19999;-80
2024/01/19 10:09:17;;;;;;;22.00;13.13;;;;;;;;;;6298078;22;20654;-80
2024/01/19 10:12:06;;;;;;;30.15;14.55;;;;;;;;;;6302460;22;20793;-78
2024/01/19 10:14:51;;;;;;;24.90;13.43;;;;;;;;;;6302153;22;19995;-80
2024/01/19 10:17:37;;;;;;;26.10;13.07;;;;;;;;;;6300849;22;20368;-80
2024/01/19 10:20:23;;;;;;;23.60;12.98;;;;;;;;;;6279977;22;19999;-77
2024/01/19 10:23:18;;;;;;;26.67;13.40;;;;;;;;;;6301183;22;20046;-78
2024/01/19 10:26:14;;;;;;;25.30;13.50;;;;;;;;;;6300771;22;20435;-80
2024/01/19 10:29:08;;;;;;;24.50;11.80;;;;;;;;;;6279663;22;19997;-80
2024/01/19 10:31:53;;;;;;;20.77;11.80;;;;;;;;;;6280902;22;19994;-79
2024/01/19 10:34:38;;;;;;;19.90;11.43;;;;;;;;;;6301973;22;20345;-79
2024/01/19 10:37:27;;;;;;;20.90;11.52;;;;;;;;;;6299771;22;20009;-79
2024/01/19 10:40:18;;;;;;;17.50;11.50;;;;;;;;;;6297489;22;20025;-81
2024/01/19 10:43:04;;;;;;;21.48;10.52;;;;;;;;;;6297344;22;19999;-79
2024/01/19 10:45:49;;;;;;;17.60;11.20;;;;;;;;;;6296789;22;20010;-80
2024/01/19 10:48:34;;;;;;;22.02;12.80;;;;;;;;;;6297882;22;19997;-78
2024/01/19 10:51:20;;;;;;;23.58;12.23;;;;;;;;;;6301295;22;19995;-78
2024/01/19 10:54:05;;;;;;;18.48;10.52;;;;;;;;;;6304249;22;20451;-78
2024/01/19 10:57:04;;;;;;;20.05;11.45;;;;;;;;;;6304153;22;20088;-77
2024/01/19 10:59:49;;;;;;;20.92;10.70;;;;;;;;;;6304266;22;20007;-77
2024/01/19 11:02:34;;;;;;;21.30;11.45;;;;;;;;;;6301550;22;20077;-78
2024/01/19 11:05:20;;;;;;;17.23;8.88;;;;;;;;;;6304319;22;20068;-78
2024/01/19 11:08:05;;;;;;;12.68;7.15;;;;;;;;;;6296942;22;20370;-79
2024/01/19 11:10:50;;;;;;;14.68;7.13;;;;;;;;;;6296224;22;20059;-79
2024/01/19 11:13:40;;;;;;;14.55;6.88;;;;;;;;;;6298046;22;20394;-78
2024/01/19 11:16:25;;;;;;;20.77;10.07;;;;;;;;;;6299802;22;20081;-80
2024/01/19 11:19:11;;;;;;;16.25;7.85;;;;;;;;;;6297875;22;20013;-80
2024/01/19 11:21:58;;;;;;;14.05;7.45;;;;;;;;;;6298145;22;19999;-80
2024/01/19 11:24:45;;;;;;;13.05;6.65;;;;;;;;;;6297564;22;20032;-81
2024/01/19 11:27:35;;;;;;;13.90;6.30;;;;;;;;;;6297236;22;20003;-82
2024/01/19 11:30:20;;;;;;;;;;;;;;;;;;6298042;22;20082;-80
2024/01/19 11:33:19;;;;;;;12.82;6.45;;;;;;;;;;6299293;22;19905;-80
2024/01/19 11:36:04;;;;;;;12.38;5.85;;;;;;;;;;6304046;22;20471;-80
2024/01/19 11:38:49;;;;;;;12.70;7.60;;;;;;;;;;6303076;22;20007;-79
2024/01/19 11:41:35;;;;;;;13.30;7.25;;;;;;;;;;6300993;22;20060;-80
2024/01/19 11:44:39;;;;;;;15.68;7.47;;;;;;;;;;6304288;22;20005;-80
2024/01/19 11:47:37;;;;;;;12.88;6.60;;;;;;;;;;6303544;22;20003;-80
2024/01/19 11:50:42;;;;;;;16.02;6.65;;;;;;;;;;6303376;22;20009;-81
2024/01/19 11:53:47;;;;;;;9.70;5.72;;;;;;;;;;6302246;22;19995;-79
2024/01/19 11:56:33;;;;;;;12.50;5.80;;;;;;;;;;6300811;22;20030;-79
2024/01/19 11:59:21;;;;;;;13.68;6.85;;;;;;;;;;6303625;22;20003;-80
2024/01/19 12:02:06;;;;;;;10.27;5.55;;;;;;;;;;6298756;22;20006;-82
2024/01/19 12:04:52;;;;;;;12.90;5.93;;;;;;;;;;6297267;22;20010;-81
2024/01/19 12:07:37;;;;;;;10.05;5.32;;;;;;;;;;6296648;22;20085;-80
2024/01/19 12:10:22;;;;;;;11.25;6.07;;;;;;;;;;6297435;22;20010;-80
2024/01/19 12:13:08;;;;;;;9.65;5.40;;;;;;;;;;6296888;22;20084;-80
2024/01/19 12:15:53;;;;;;;8.88;4.20;;;;;;;;;;6299255;22;19999;-81
2024/01/19 12:18:38;;;;;;;8.48;4.45;;;;;;;;;;6303292;22;19995;-82
2024/01/19 12:21:24;;;;;;;10.38;4.57;;;;;;;;;;6301689;22;19999;-79
2024/01/19 12:24:09;;;;;;;8.95;4.53;;;;;;;;;;6303446;22;19999;-79
2024/01/19 12:26:55;;;;;;;9.75;5.32;;;;;;;;;;6302989;22;20342;-80
2024/01/19 12:29:40;;;;;;;9.30;5.35;;;;;;;;;;6302260;22;20075;-82
2024/01/19 12:32:26;;;;;;;6.93;4.50;;;;;;;;;;6303199;22;20018;-83
2024/01/19 12:35:11;;;;;;;12.48;4.85;;;;;;;;;;6300947;22;19995;-79
2024/01/19 12:38:00;;;;;;;9.07;4.32;;;;;;;;;;6297337;22;19998;-80
2024/01/19 12:40:46;;;;;;;11.93;5.45;;;;;;;;;;6297888;22;19999;-82
2024/01/19 12:43:32;;;;;;;6.80;2.80;;;;;;;;;;6296732;22;19998;-81
2024/01/19 12:46:17;;;;;;;6.82;3.08;;;;;;;;;;6298267;22;19999;-82
2024/01/19 12:49:02;;;;;;;5.50;2.92;;;;;;;;;;6298806;22;20358;-80
2024/01/19 12:51:48;;;;;;;6.18;2.55;;;;;;;;;;6277586;22;20546;-81
2024/01/19 12:54:40;;;;;;;6.75;3.40;;;;;;;;;;6302370;22;20082;-80
2024/01/19 12:57:26;;;;;;;5.60;3.28;;;;;;;;;;6301728;22;20030;-80
2024/01/19 13:00:15;;;;;;;8.43;4.03;;;;;;;;;;6303381;22;20081;-81
2024/01/19 13:03:01;;;;;;;9.23;4.30;;;;;;;;;;6282124;22;20011;-81
2024/01/19 13:05:46;;;;;;;10.93;5.80;;;;;;;;;;6301509;22;20064;-81
2024/01/19 13:08:32;;;;;;;12.02;6.28;;;;;;;;;;6302320;22;19999;-80
2024/01/19 13:11:20;;;;;;;9.45;5.43;;;;;;;;;;6303427;22;20065;-79
2024/01/19 13:14:06;;;;;;;12.75;6.22;;;;;;;;;;6304909;22;20006;-80
2024/01/19 13:16:52;;;;;;;13.93;6.40;;;;;;;;;;6301935;22;20041;-81
2024/01/19 13:19:46;;;;;;;14.15;7.15;;;;;;;;;;6299111;22;20010;-80
2024/01/19 13:22:32;;;;;;;12.15;6.55;;;;;;;;;;6291556;22;20125;-81
2024/01/19 13:25:17;;;;;;;12.25;6.75;;;;;;;;;;6296956;22;20013;-81
2024/01/19 13:28:03;;;;;;;12.48;7.07;;;;;;;;;;6295944;22;20002;-76
2024/01/19 13:30:59;;;;;;;16.55;7.95;;;;;;;;;;6295897;22;19998;-80
2024/01/19 13:33:45;;;;;;;15.77;7.72;;;;;;;;;;6302486;22;20006;-81
2024/01/19 13:36:34;;;;;;;13.85;7.68;;;;;;;;;;6299711;22;19999;-81
2024/01/19 13:39:22;;;;;;;13.43;7.38;;;;;;;;;;6269451;22;20011;-80
2024/01/19 13:42:07;;;;;;;18.40;9.23;;;;;;;;;;6264507;22;20003;-80
2024/01/19 13:44:53;;;;;;;14.65;8.48;;;;;;;;;;6267290;22;20003;-81
2024/01/19 13:47:38;;;;;;;18.20;9.45;;;;;;;;;;6264805;22;20053;-79
2024/01/19 13:50:23;;;;;;;15.85;8.98;;;;;;;;;;6264845;22;20126;-78
2024/01/19 13:53:11;;;;;;;18.65;10.02;;;;;;;;;;6272428;22;20007;-77
2024/01/19 13:55:56;;;;;;;15.98;8.32;;;;;;;;;;6271508;22;20407;-80
2024/01/19 13:58:42;;;;;;;20.45;9.52;;;;;;;;;;6268765;22;20022;-81
2024/01/19 14:01:27;;;;;;;14.38;8.05;;;;;;;;;;6270377;22;20074;-77
2024/01/19 14:04:12;;;;;;;18.30;9.98;;;;;;;;;;6270661;22;20004;-79
2024/01/19 14:06:58;;;;;;;15.52;9.18;;;;;;;;;;6267193;22;20363;-81
2024/01/19 14:09:44;;;;;;;15.75;8.60;;;;;;;;;;6264881;22;19999;-82
2024/01/19 14:12:29;;;;;;;16.05;8.90;;;;;;;;;;6264925;22;20003;-82
2024/01/19 14:15:15;;;;;;;17.58;10.15;;;;;;;;;;6264630;22;20078;-80
2024/01/19 14:18:01;;;;;;;14.07;8.38;;;;;;;;;;6264096;22;19995;-79
2024/01/19 14:20:46;;;;;;;16.20;9.00;;;;;;;;;;6264319;22;20006;-80
2024/01/19 14:23:32;;;;;;;15.90;8.02;;;;;;;;;;6269282;22;20003;-81
2024/01/19 14:26:20;;;;;;;15.60;9.63;;;;;;;;;;6270454;22;19999;-79
2024/01/19 14:29:05;;;;;;;18.20;9.18;;;;;;;;;;6270866;22;20375;-80
2024/01/19 14:31:50;;;;;;;18.33;9.73;;;;;;;;;;6267298;22;20343;-80
2024/01/19 14:34:36;;;;;;;21.23;11.02;;;;;;;;;;6267108;22;19996;-80
2024/01/19 14:37:21;;;;;;;18.73;10.20;;;;;;;;;;6269463;22;20072;-81
2024/01/19 14:40:06;;;;;;;16.95;9.63;;;;;;;;;;6272179;22;20733;-79
2024/01/19 14:42:52;;;;;;;18.83;10.25;;;;;;;;;;6272730;22;20030;-78
2024/01/19 14:45:37;;;;;;;16.63;10.85;;;;;;;;;;6271252;22;20022;-79
2024/01/19 14:48:22;;;;;;;17.98;9.82;;;;;;;;;;6271415;22;19999;-77
2024/01/19 14:51:08;;;;;;;19.23;10.32;;;;;;;;;;6271629;22;20459;-78
2024/01/19 14:53:54;;;;;;;18.13;10.85;;;;;;;;;;6271492;22;20011;-78
2024/01/19 14:56:39;;;;;;;18.70;10.80;;;;;;;;;;6268786;22;19999;-79
2024/01/19 14:59:24;;;;;;;20.15;11.20;;;;;;;;;;6269811;22;20007;-79
2024/01/19 15:02:09;;;;;;;17.88;11.43;;;;;;;;;;6263157;22;20418;-80
2024/01/19 15:04:54;;;;;;;20.92;9.95;;;;;;;;;;6264379;22;20078;-80
2024/01/19 15:07:40;;;;;;;19.50;10.98;;;;;;;;;;6264606;22;19999;-80
2024/01/19 15:10:25;;;;;;;16.80;10.48;;;;;;;;;;6266756;22;20004;-81
2024/01/19 15:13:10;;;;;;;16.85;11.15;;;;;;;;;;6264742;22;20007;-80
2024/01/19 15:15:55;;;;;;;17.73;10.10;;;;;;;;;;6267325;22;20003;-81
2024/01/19 15:18:41;;;;;;;17.67;10.68;;;;;;;;;;6266972;22;20432;-82
2024/01/19 15:21:26;;;;;;;18.83;10.65;;;;;;;;;;6267782;22;20060;-80
2024/01/19 15:24:11;;;;;;;23.08;13.77;;;;;;;;;;6273073;22;20074;-81
2024/01/19 15:26:56;;;;;;;26.15;12.55;;;;;;;;;;6272618;22;20012;-81
2024/01/19 15:29:42;;;;;;;19.63;11.15;;;;;;;;;;6269677;22;20427;-81
2024/01/19 15:32:27;;;;;;;21.20;12.13;;;;;;;;;;6270362;22;20018;-82
2024/01/19 15:35:15;;;;;;;22.15;11.52;;;;;;;;;;6272933;22;20212;-80
2024/01/19 15:38:00;;;;;;;17.98;10.85;;;;;;;;;;6273276;22;19995;-80
2024/01/19 15:40:45;;;;;;;21.58;11.90;;;;;;;;;;6270513;22;19991;-80
2024/01/19 15:43:30;;;;;;;20.77;10.85;;;;;;;;;;6271082;22;19995;-81
2024/01/19 15:46:19;;;;;;;18.40;10.90;;;;;;;;;;6272352;22;20003;-81
2024/01/19 15:49:05;;;;;;;22.27;11.85;;;;;;;;;;6267644;22;20003;-81
2024/01/19 15:51:50;;;;;;;23.92;11.48;;;;;;;;;;6266307;22;20067;-79
2024/01/19 15:54:35;;;;;;;19.27;11.00;;;;;;;;;;6264873;22;19995;-80
2024/01/19 15:57:21;;;;;;;22.80;12.07;;;;;;;;;;6268755;22;19999;-80
2024/01/19 16:00:07;;;;;;;19.88;12.70;;;;;;;;;;6265888;22;19999;-80
2024/01/19 16:02:52;;;;;;;22.15;12.55;;;;;;;;;;6269554;22;20045;-80
2024/01/19 16:05:37;;;;;;;23.20;12.90;;;;;;;;;;6266149;22;20128;-79
2024/01/19 16:08:23;;;;;;;21.83;12.05;;;;;;;;;;6270108;22;20006;-80
2024/01/19 16:11:09;;;;;;;26.52;12.82;;;;;;;;;;6272134;22;20003;-78